sensor_id;sensor_type;location;lat;lon;timestamp;temperature;humidity
72883;DHT22;61017;37.812;-122.286;2023-04-06T00:01:00;17.10;52.50
72883;DHT22;61017;37.812;-122.286;2023-04-06T00:02:32;17.10;53.00
72883;DHT22;61017;37.812;-122.286;2023-04-06T00:04:04;17.20;51.10
72883;DHT22;61017;37.812;-122.286;2023-04-06T00:05:35;17.30;51.00
72883;DHT22;61017;37.812;-122.286;2023-04-06T00:07:07;17.40;50.00
72883;DHT22;61017;37.812;-122.286;2023-04-06T00:08:39;17.40;49.80
72883;DHT22;61017;37.812;-122.286;2023-04-06T00:10:10;17.50;49.70
72883;DHT22;61017;37.812;-122.286;2023-04-06T00:11:42;17.50;49.90
72883;DHT22;61017;37.812;-122.286;2023-04-06T00:13:14;17.00;52.90
72883;DHT22;61017;37.812;-122.286;2023-04-06T00:14:45;17.10;52.10
72883;DHT22;61017;37.812;-122.286;2023-04-06T00:16:17;17.30;50.80
72883;DHT22;61017;37.812;-122.286;2023-04-06T00:17:49;17.40;50.30
72883;DHT22;61017;37.812;-122.286;2023-04-06T00:19:20;17.40;50.00
72883;DHT22;61017;37.812;-122.286;2023-04-06T00:20:52;17.40;49.80
72883;DHT22;61017;37.812;-122.286;2023-04-06T00:22:24;17.50;49.50
72883;DHT22;61017;37.812;-122.286;2023-04-06T00:23:55;17.40;50.70
72883;DHT22;61017;37.812;-122.286;2023-04-06T00:25:27;16.90;53.80
72883;DHT22;61017;37.812;-122.286;2023-04-06T00:26:58;17.20;51.70
72883;DHT22;61017;37.812;-122.286;2023-04-06T00:28:30;17.30;50.50
72883;DHT22;61017;37.812;-122.286;2023-04-06T00:30:03;17.40;50.20
72883;DHT22;61017;37.812;-122.286;2023-04-06T00:31:35;17.50;49.80
72883;DHT22;61017;37.812;-122.286;2023-04-06T00:33:06;17.50;49.70
72883;DHT22;61017;37.812;-122.286;2023-04-06T00:34:38;17.50;49.50
72883;DHT22;61017;37.812;-122.286;2023-04-06T00:36:09;17.30;51.00
72883;DHT22;61017;37.812;-122.286;2023-04-06T00:37:41;17.10;54.10
72883;DHT22;61017;37.812;-122.286;2023-04-06T00:39:12;17.30;51.10
72883;DHT22;61017;37.812;-122.286;2023-04-06T00:40:44;17.40;50.40
72883;DHT22;61017;37.812;-122.286;2023-04-06T00:42:16;17.50;50.00
72883;DHT22;61017;37.812;-122.286;2023-04-06T00:43:47;17.50;49.70
72883;DHT22;61017;37.812;-122.286;2023-04-06T00:45:19;17.60;49.70
72883;DHT22;61017;37.812;-122.286;2023-04-06T00:46:51;17.60;49.60
72883;DHT22;61017;37.812;-122.286;2023-04-06T00:48:22;17.30;51.80
72883;DHT22;61017;37.812;-122.286;2023-04-06T00:49:54;17.20;53.50
72883;DHT22;61017;37.812;-122.286;2023-04-06T00:51:26;17.30;50.90
72883;DHT22;61017;37.812;-122.286;2023-04-06T00:52:59;17.50;50.30
72883;DHT22;61017;37.812;-122.286;2023-04-06T00:54:30;17.50;50.00
72883;DHT22;61017;37.812;-122.286;2023-04-06T00:56:02;17.60;49.70
72883;DHT22;61017;37.812;-122.286;2023-04-06T00:57:33;17.60;49.50
72883;DHT22;61017;37.812;-122.286;2023-04-06T00:59:05;17.60;49.20
72883;DHT22;61017;37.812;-122.286;2023-04-06T01:00:37;17.20;52.30
72883;DHT22;61017;37.812;-122.286;2023-04-06T01:02:09;17.30;52.40
72883;DHT22;61017;37.812;-122.286;2023-04-06T01:03:41;17.40;50.60
72883;DHT22;61017;37.812;-122.286;2023-04-06T01:05:12;17.50;50.00
72883;DHT22;61017;37.812;-122.286;2023-04-06T01:06:44;17.60;49.70
72883;DHT22;61017;37.812;-122.286;2023-04-06T01:08:15;17.60;49.60
72883;DHT22;61017;37.812;-122.286;2023-04-06T01:09:48;17.60;49.30
72883;DHT22;61017;37.812;-122.286;2023-04-06T01:11:19;17.60;50.00
72883;DHT22;61017;37.812;-122.286;2023-04-06T01:12:51;17.10;52.60
72883;DHT22;61017;37.812;-122.286;2023-04-06T01:14:23;17.30;51.60
72883;DHT22;61017;37.812;-122.286;2023-04-06T01:15:55;17.40;50.40
72883;DHT22;61017;37.812;-122.286;2023-04-06T01:17:27;17.50;50.00
72883;DHT22;61017;37.812;-122.286;2023-04-06T01:18:58;17.60;49.70
72883;DHT22;61017;37.812;-122.286;2023-04-06T01:20:30;17.60;49.40
72883;DHT22;61017;37.812;-122.286;2023-04-06T01:22:01;17.60;49.20
72883;DHT22;61017;37.812;-122.286;2023-04-06T01:23:33;17.50;50.60
72883;DHT22;61017;37.812;-122.286;2023-04-06T01:25:08;17.20;54.10
72883;DHT22;61017;37.812;-122.286;2023-04-06T01:26:41;17.30;51.10
72883;DHT22;61017;37.812;-122.286;2023-04-06T01:28:13;17.00;52.80
72883;DHT22;61017;37.812;-122.286;2023-04-06T01:29:44;16.70;54.00
72883;DHT22;61017;37.812;-122.286;2023-04-06T01:31:16;16.40;55.10
72883;DHT22;61017;37.812;-122.286;2023-04-06T01:32:47;16.30;55.20
72883;DHT22;61017;37.812;-122.286;2023-04-06T01:34:19;16.10;55.70
72883;DHT22;61017;37.812;-122.286;2023-04-06T01:35:50;16.00;56.20
72883;DHT22;61017;37.812;-122.286;2023-04-06T01:37:22;15.90;56.50
72883;DHT22;61017;37.812;-122.286;2023-04-06T01:38:53;15.80;56.80
72883;DHT22;61017;37.812;-122.286;2023-04-06T01:40:25;15.70;57.20
72883;DHT22;61017;37.812;-122.286;2023-04-06T01:41:57;15.60;57.50
72883;DHT22;61017;37.812;-122.286;2023-04-06T01:43:28;15.60;57.80
72883;DHT22;61017;37.812;-122.286;2023-04-06T01:45:00;15.50;58.00
72883;DHT22;61017;37.812;-122.286;2023-04-06T01:46:31;15.50;58.50
72883;DHT22;61017;37.812;-122.286;2023-04-06T01:48:03;15.50;58.70
72883;DHT22;61017;37.812;-122.286;2023-04-06T01:49:35;15.40;58.90
72883;DHT22;61017;37.812;-122.286;2023-04-06T01:51:06;15.40;59.20
72883;DHT22;61017;37.812;-122.286;2023-04-06T01:52:38;15.40;59.50
72883;DHT22;61017;37.812;-122.286;2023-04-06T01:54:09;15.30;59.60
72883;DHT22;61017;37.812;-122.286;2023-04-06T01:55:41;15.40;60.00
72883;DHT22;61017;37.812;-122.286;2023-04-06T01:57:12;15.30;60.10
72883;DHT22;61017;37.812;-122.286;2023-04-06T01:58:44;15.30;60.40
72883;DHT22;61017;37.812;-122.286;2023-04-06T02:00:16;15.30;60.60
72883;DHT22;61017;37.812;-122.286;2023-04-06T02:01:47;15.20;60.70
72883;DHT22;61017;37.812;-122.286;2023-04-06T02:03:19;15.20;60.90
72883;DHT22;61017;37.812;-122.286;2023-04-06T02:04:51;15.20;61.10
72883;DHT22;61017;37.812;-122.286;2023-04-06T02:06:22;15.20;61.30
72883;DHT22;61017;37.812;-122.286;2023-04-06T02:07:54;15.20;61.50
72883;DHT22;61017;37.812;-122.286;2023-04-06T02:09:25;15.20;61.80
72883;DHT22;61017;37.812;-122.286;2023-04-06T02:10:57;15.20;61.90
72883;DHT22;61017;37.812;-122.286;2023-04-06T02:12:28;15.20;62.10
72883;DHT22;61017;37.812;-122.286;2023-04-06T02:14:00;15.10;62.10
72883;DHT22;61017;37.812;-122.286;2023-04-06T02:15:32;15.10;62.30
72883;DHT22;61017;37.812;-122.286;2023-04-06T02:17:03;15.10;62.40
72883;DHT22;61017;37.812;-122.286;2023-04-06T02:18:35;15.10;62.70
72883;DHT22;61017;37.812;-122.286;2023-04-06T02:20:07;15.10;62.80
72883;DHT22;61017;37.812;-122.286;2023-04-06T02:21:38;15.10;62.90
72883;DHT22;61017;37.812;-122.286;2023-04-06T02:23:10;15.10;63.00
72883;DHT22;61017;37.812;-122.286;2023-04-06T02:24:42;15.10;63.30
72883;DHT22;61017;37.812;-122.286;2023-04-06T02:26:14;15.00;63.30
72883;DHT22;61017;37.812;-122.286;2023-04-06T02:27:45;15.10;63.40
72883;DHT22;61017;37.812;-122.286;2023-04-06T02:29:17;15.00;63.40
72883;DHT22;61017;37.812;-122.286;2023-04-06T02:30:48;15.10;63.50
72883;DHT22;61017;37.812;-122.286;2023-04-06T02:32:20;15.00;63.50
72883;DHT22;61017;37.812;-122.286;2023-04-06T02:33:51;15.00;63.60
72883;DHT22;61017;37.812;-122.286;2023-04-06T02:35:24;15.00;63.80
72883;DHT22;61017;37.812;-122.286;2023-04-06T02:36:56;15.00;63.90
72883;DHT22;61017;37.812;-122.286;2023-04-06T02:38:28;15.00;63.90
72883;DHT22;61017;37.812;-122.286;2023-04-06T02:40:00;15.00;64.00
72883;DHT22;61017;37.812;-122.286;2023-04-06T02:41:31;15.00;64.10
72883;DHT22;61017;37.812;-122.286;2023-04-06T02:43:03;15.00;64.20
72883;DHT22;61017;37.812;-122.286;2023-04-06T02:44:35;15.00;64.20
72883;DHT22;61017;37.812;-122.286;2023-04-06T02:46:06;14.90;64.20
72883;DHT22;61017;37.812;-122.286;2023-04-06T02:47:38;15.00;64.40
72883;DHT22;61017;37.812;-122.286;2023-04-06T02:49:09;15.00;64.40
72883;DHT22;61017;37.812;-122.286;2023-04-06T02:50:41;14.90;64.30
72883;DHT22;61017;37.812;-122.286;2023-04-06T02:52:12;14.90;64.40
72883;DHT22;61017;37.812;-122.286;2023-04-06T02:53:44;14.90;64.40
72883;DHT22;61017;37.812;-122.286;2023-04-06T02:55:16;14.90;64.50
72883;DHT22;61017;37.812;-122.286;2023-04-06T02:56:47;14.90;64.50
72883;DHT22;61017;37.812;-122.286;2023-04-06T02:58:19;14.90;64.50
72883;DHT22;61017;37.812;-122.286;2023-04-06T02:59:50;14.90;64.50
72883;DHT22;61017;37.812;-122.286;2023-04-06T03:01:22;14.90;64.50
72883;DHT22;61017;37.812;-122.286;2023-04-06T03:02:53;14.90;64.70
72883;DHT22;61017;37.812;-122.286;2023-04-06T03:04:25;14.90;64.70
72883;DHT22;61017;37.812;-122.286;2023-04-06T03:05:56;14.90;64.80
72883;DHT22;61017;37.812;-122.286;2023-04-06T03:07:28;14.90;64.80
72883;DHT22;61017;37.812;-122.286;2023-04-06T03:09:00;14.90;65.10
72883;DHT22;61017;37.812;-122.286;2023-04-06T03:10:31;14.90;65.00
72883;DHT22;61017;37.812;-122.286;2023-04-06T03:12:03;14.90;64.90
72883;DHT22;61017;37.812;-122.286;2023-04-06T03:13:36;14.90;64.90
72883;DHT22;61017;37.812;-122.286;2023-04-06T03:15:09;14.80;65.00
72883;DHT22;61017;37.812;-122.286;2023-04-06T03:16:40;14.90;65.20
72883;DHT22;61017;37.812;-122.286;2023-04-06T03:18:12;14.90;65.10
72883;DHT22;61017;37.812;-122.286;2023-04-06T03:19:43;14.90;65.90
72883;DHT22;61017;37.812;-122.286;2023-04-06T03:21:15;14.80;65.20
72883;DHT22;61017;37.812;-122.286;2023-04-06T03:22:46;14.90;65.20
72883;DHT22;61017;37.812;-122.286;2023-04-06T03:24:18;14.80;65.20
72883;DHT22;61017;37.812;-122.286;2023-04-06T03:25:50;14.80;65.30
72883;DHT22;61017;37.812;-122.286;2023-04-06T03:27:21;14.80;65.40
72883;DHT22;61017;37.812;-122.286;2023-04-06T03:28:53;14.80;65.30
72883;DHT22;61017;37.812;-122.286;2023-04-06T03:30:24;14.80;65.40
72883;DHT22;61017;37.812;-122.286;2023-04-06T03:31:56;14.80;65.40
72883;DHT22;61017;37.812;-122.286;2023-04-06T03:33:27;14.80;65.50
72883;DHT22;61017;37.812;-122.286;2023-04-06T03:34:59;14.80;65.50
72883;DHT22;61017;37.812;-122.286;2023-04-06T03:36:30;14.80;65.60
72883;DHT22;61017;37.812;-122.286;2023-04-06T03:38:03;14.80;65.60
72883;DHT22;61017;37.812;-122.286;2023-04-06T03:39:34;14.80;65.60
72883;DHT22;61017;37.812;-122.286;2023-04-06T03:41:06;14.80;65.80
72883;DHT22;61017;37.812;-122.286;2023-04-06T03:42:37;14.80;65.70
72883;DHT22;61017;37.812;-122.286;2023-04-06T03:44:09;14.80;65.80
72883;DHT22;61017;37.812;-122.286;2023-04-06T03:45:40;14.80;65.80
72883;DHT22;61017;37.812;-122.286;2023-04-06T03:47:13;14.80;65.70
72883;DHT22;61017;37.812;-122.286;2023-04-06T03:48:48;14.80;65.80
72883;DHT22;61017;37.812;-122.286;2023-04-06T03:50:19;14.80;65.90
72883;DHT22;61017;37.812;-122.286;2023-04-06T03:51:52;14.80;66.00
72883;DHT22;61017;37.812;-122.286;2023-04-06T03:53:23;14.80;65.90
72883;DHT22;61017;37.812;-122.286;2023-04-06T03:54:55;14.80;66.00
72883;DHT22;61017;37.812;-122.286;2023-04-06T03:56:26;14.70;66.00
72883;DHT22;61017;37.812;-122.286;2023-04-06T03:58:01;14.80;66.10
72883;DHT22;61017;37.812;-122.286;2023-04-06T03:59:33;14.70;65.90
72883;DHT22;61017;37.812;-122.286;2023-04-06T04:01:04;14.70;66.00
72883;DHT22;61017;37.812;-122.286;2023-04-06T04:02:36;14.80;66.20
72883;DHT22;61017;37.812;-122.286;2023-04-06T04:04:07;14.70;66.00
72883;DHT22;61017;37.812;-122.286;2023-04-06T04:05:39;14.70;66.00
72883;DHT22;61017;37.812;-122.286;2023-04-06T04:07:10;14.70;66.10
72883;DHT22;61017;37.812;-122.286;2023-04-06T04:08:42;14.70;66.10
72883;DHT22;61017;37.812;-122.286;2023-04-06T04:10:15;14.70;66.20
72883;DHT22;61017;37.812;-122.286;2023-04-06T04:11:46;14.70;66.30
72883;DHT22;61017;37.812;-122.286;2023-04-06T04:13:18;14.70;67.10
72883;DHT22;61017;37.812;-122.286;2023-04-06T04:14:49;14.70;66.40
72883;DHT22;61017;37.812;-122.286;2023-04-06T04:16:21;14.70;66.30
72883;DHT22;61017;37.812;-122.286;2023-04-06T04:17:52;14.70;66.40
72883;DHT22;61017;37.812;-122.286;2023-04-06T04:19:24;14.70;66.30
72883;DHT22;61017;37.812;-122.286;2023-04-06T04:20:59;14.70;66.40
72883;DHT22;61017;37.812;-122.286;2023-04-06T04:22:30;14.70;66.40
72883;DHT22;61017;37.812;-122.286;2023-04-06T04:24:02;14.70;66.40
72883;DHT22;61017;37.812;-122.286;2023-04-06T04:25:34;14.70;66.40
72883;DHT22;61017;37.812;-122.286;2023-04-06T04:27:05;14.70;66.80
72883;DHT22;61017;37.812;-122.286;2023-04-06T04:28:37;15.10;65.40
72883;DHT22;61017;37.812;-122.286;2023-04-06T04:30:09;15.50;61.70
72883;DHT22;61017;37.812;-122.286;2023-04-06T04:31:40;15.80;59.20
72883;DHT22;61017;37.812;-122.286;2023-04-06T04:33:12;16.10;58.00
72883;DHT22;61017;37.812;-122.286;2023-04-06T04:34:43;16.40;56.80
72883;DHT22;61017;37.812;-122.286;2023-04-06T04:36:15;16.60;55.80
72883;DHT22;61017;37.812;-122.286;2023-04-06T04:37:46;16.50;57.80
72883;DHT22;61017;37.812;-122.286;2023-04-06T04:39:18;16.30;60.50
72883;DHT22;61017;37.812;-122.286;2023-04-06T04:40:50;16.50;56.50
72883;DHT22;61017;37.812;-122.286;2023-04-06T04:42:21;16.70;55.30
72883;DHT22;61017;37.812;-122.286;2023-04-06T04:43:53;16.80;54.50
72883;DHT22;61017;37.812;-122.286;2023-04-06T04:45:24;16.90;53.80
72883;DHT22;61017;37.812;-122.286;2023-04-06T04:46:56;17.00;53.50
72883;DHT22;61017;37.812;-122.286;2023-04-06T04:48:28;17.00;53.00
72883;DHT22;61017;37.812;-122.286;2023-04-06T04:49:59;16.80;55.40
72883;DHT22;61017;37.812;-122.286;2023-04-06T04:51:31;16.60;57.40
72883;DHT22;61017;37.812;-122.286;2023-04-06T04:53:02;16.80;54.30
72883;DHT22;61017;37.812;-122.286;2023-04-06T04:54:34;16.90;53.50
72883;DHT22;61017;37.812;-122.286;2023-04-06T04:56:08;17.10;53.00
72883;DHT22;61017;37.812;-122.286;2023-04-06T04:57:39;17.10;52.50
72883;DHT22;61017;37.812;-122.286;2023-04-06T04:59:11;17.10;52.10
72883;DHT22;61017;37.812;-122.286;2023-04-06T05:00:43;17.10;51.90
72883;DHT22;61017;37.812;-122.286;2023-04-06T05:02:14;16.90;54.70
72883;DHT22;61017;37.812;-122.286;2023-04-06T05:03:46;16.70;56.00
72883;DHT22;61017;37.812;-122.286;2023-04-06T05:05:17;16.90;53.30
72883;DHT22;61017;37.812;-122.286;2023-04-06T05:06:49;17.00;52.50
72883;DHT22;61017;37.812;-122.286;2023-04-06T05:08:21;17.10;52.20
72883;DHT22;61017;37.812;-122.286;2023-04-06T05:09:52;17.10;51.80
72883;DHT22;61017;37.812;-122.286;2023-04-06T05:11:24;17.20;51.60
72883;DHT22;61017;37.812;-122.286;2023-04-06T05:12:56;17.20;51.10
72883;DHT22;61017;37.812;-122.286;2023-04-06T05:14:28;16.80;54.30
72883;DHT22;61017;37.812;-122.286;2023-04-06T05:16:00;16.80;55.00
72883;DHT22;61017;37.812;-122.286;2023-04-06T05:17:32;17.00;52.70
72883;DHT22;61017;37.812;-122.286;2023-04-06T05:19:04;17.10;51.90
72883;DHT22;61017;37.812;-122.286;2023-04-06T05:20:39;17.20;52.10
72883;DHT22;61017;37.812;-122.286;2023-04-06T05:22:11;17.20;51.20
72883;DHT22;61017;37.812;-122.286;2023-04-06T05:23:42;17.20;51.00
72883;DHT22;61017;37.812;-122.286;2023-04-06T05:25:14;17.30;51.00
72883;DHT22;61017;37.812;-122.286;2023-04-06T05:26:46;16.80;54.00
72883;DHT22;61017;37.812;-122.286;2023-04-06T05:28:18;16.90;53.90
72883;DHT22;61017;37.812;-122.286;2023-04-06T05:29:49;17.00;52.10
72883;DHT22;61017;37.812;-122.286;2023-04-06T05:31:21;17.20;51.60
72883;DHT22;61017;37.812;-122.286;2023-04-06T05:32:53;17.20;51.10
72883;DHT22;61017;37.812;-122.286;2023-04-06T05:34:25;17.20;50.80
72883;DHT22;61017;37.812;-122.286;2023-04-06T05:35:56;17.30;50.70
72883;DHT22;61017;37.812;-122.286;2023-04-06T05:37:28;17.20;51.40
72883;DHT22;61017;37.812;-122.286;2023-04-06T05:39:00;16.80;53.70
72883;DHT22;61017;37.812;-122.286;2023-04-06T05:40:32;16.90;52.90
72883;DHT22;61017;37.812;-122.286;2023-04-06T05:42:05;17.10;51.60
72883;DHT22;61017;37.812;-122.286;2023-04-06T05:43:37;17.20;51.30
72883;DHT22;61017;37.812;-122.286;2023-04-06T05:45:09;17.20;50.90
72883;DHT22;61017;37.812;-122.286;2023-04-06T05:46:41;17.30;50.70
72883;DHT22;61017;37.812;-122.286;2023-04-06T05:48:12;17.30;50.50
72883;DHT22;61017;37.812;-122.286;2023-04-06T05:49:44;17.20;51.90
72883;DHT22;61017;37.812;-122.286;2023-04-06T05:51:16;16.80;54.80
72883;DHT22;61017;37.812;-122.286;2023-04-06T05:52:47;17.00;52.40
72883;DHT22;61017;37.812;-122.286;2023-04-06T05:54:19;17.20;51.40
72883;DHT22;61017;37.812;-122.286;2023-04-06T05:55:51;17.20;50.90
72883;DHT22;61017;37.812;-122.286;2023-04-06T05:57:22;17.30;50.70
72883;DHT22;61017;37.812;-122.286;2023-04-06T05:58:54;17.30;50.40
72883;DHT22;61017;37.812;-122.286;2023-04-06T06:00:25;17.30;50.20
72883;DHT22;61017;37.812;-122.286;2023-04-06T06:01:57;17.20;52.20
72883;DHT22;61017;37.812;-122.286;2023-04-06T06:03:28;16.90;55.10
72883;DHT22;61017;37.812;-122.286;2023-04-06T06:05:00;17.00;51.90
72883;DHT22;61017;37.812;-122.286;2023-04-06T06:06:32;17.20;51.10
72883;DHT22;61017;37.812;-122.286;2023-04-06T06:08:03;17.30;50.70
72883;DHT22;61017;37.812;-122.286;2023-04-06T06:09:35;17.30;50.40
72883;DHT22;61017;37.812;-122.286;2023-04-06T06:11:06;17.30;50.20
72883;DHT22;61017;37.812;-122.286;2023-04-06T06:12:38;17.40;50.10
72883;DHT22;61017;37.812;-122.286;2023-04-06T06:14:09;17.10;52.30
72883;DHT22;61017;37.812;-122.286;2023-04-06T06:15:41;16.90;54.50
72883;DHT22;61017;37.812;-122.286;2023-04-06T06:17:12;17.10;51.60
72883;DHT22;61017;37.812;-122.286;2023-04-06T06:18:44;17.20;50.90
72883;DHT22;61017;37.812;-122.286;2023-04-06T06:20:15;17.30;50.50
72883;DHT22;61017;37.812;-122.286;2023-04-06T06:21:47;17.30;50.20
72883;DHT22;61017;37.812;-122.286;2023-04-06T06:23:19;17.40;50.00
72883;DHT22;61017;37.812;-122.286;2023-04-06T06:24:50;17.40;49.80
72883;DHT22;61017;37.812;-122.286;2023-04-06T06:26:22;17.10;52.50
72883;DHT22;61017;37.812;-122.286;2023-04-06T06:27:53;17.00;54.00
72883;DHT22;61017;37.812;-122.286;2023-04-06T06:29:25;17.10;51.40
72883;DHT22;61017;37.812;-122.286;2023-04-06T06:30:56;17.20;50.70
72883;DHT22;61017;37.812;-122.286;2023-04-06T06:32:28;17.30;50.40
72883;DHT22;61017;37.812;-122.286;2023-04-06T06:33:59;17.30;50.20
72883;DHT22;61017;37.812;-122.286;2023-04-06T06:35:31;17.30;50.00
72883;DHT22;61017;37.812;-122.286;2023-04-06T06:37:06;17.40;49.80
72883;DHT22;61017;37.812;-122.286;2023-04-06T06:38:37;17.00;52.60
72883;DHT22;61017;37.812;-122.286;2023-04-06T06:40:09;17.00;53.00
72883;DHT22;61017;37.812;-122.286;2023-04-06T06:41:41;17.20;51.10
72883;DHT22;61017;37.812;-122.286;2023-04-06T06:43:13;17.20;50.70
72883;DHT22;61017;37.812;-122.286;2023-04-06T06:44:44;17.30;50.30
72883;DHT22;61017;37.812;-122.286;2023-04-06T06:46:16;17.30;50.00
72883;DHT22;61017;37.812;-122.286;2023-04-06T06:47:47;17.40;50.00
72883;DHT22;61017;37.812;-122.286;2023-04-06T06:49:20;17.30;50.20
72883;DHT22;61017;37.812;-122.286;2023-04-06T06:50:51;16.90;52.60
72883;DHT22;61017;37.812;-122.286;2023-04-06T06:52:23;17.00;52.40
72883;DHT22;61017;37.812;-122.286;2023-04-06T06:53:54;17.20;50.90
72883;DHT22;61017;37.812;-122.286;2023-04-06T06:55:26;17.30;50.40
72883;DHT22;61017;37.812;-122.286;2023-04-06T06:56:58;17.30;50.20
72883;DHT22;61017;37.812;-122.286;2023-04-06T06:58:29;17.40;49.90
72883;DHT22;61017;37.812;-122.286;2023-04-06T07:00:01;17.40;49.90
72883;DHT22;61017;37.812;-122.286;2023-04-06T07:01:33;17.30;50.90
72883;DHT22;61017;37.812;-122.286;2023-04-06T07:03:05;16.90;52.80
72883;DHT22;61017;37.812;-122.286;2023-04-06T07:04:36;17.10;51.90
72883;DHT22;61017;37.812;-122.286;2023-04-06T07:06:08;17.20;50.80
72883;DHT22;61017;37.812;-122.286;2023-04-06T07:07:40;17.30;50.40
72883;DHT22;61017;37.812;-122.286;2023-04-06T07:09:12;17.40;50.00
72883;DHT22;61017;37.812;-122.286;2023-04-06T07:10:44;17.40;49.80
72883;DHT22;61017;37.812;-122.286;2023-04-06T07:12:15;17.40;49.60
72883;DHT22;61017;37.812;-122.286;2023-04-06T07:13:47;17.30;51.30
72883;DHT22;61017;37.812;-122.286;2023-04-06T07:15:18;17.00;54.30
72883;DHT22;61017;37.812;-122.286;2023-04-06T07:16:50;17.10;51.40
72883;DHT22;61017;37.812;-122.286;2023-04-06T07:18:22;17.30;50.60
72883;DHT22;61017;37.812;-122.286;2023-04-06T07:19:54;17.30;50.20
72883;DHT22;61017;37.812;-122.286;2023-04-06T07:21:25;17.40;50.00
72883;DHT22;61017;37.812;-122.286;2023-04-06T07:22:57;17.40;49.70
72883;DHT22;61017;37.812;-122.286;2023-04-06T07:24:29;17.50;49.50
72883;DHT22;61017;37.812;-122.286;2023-04-06T07:26:02;17.20;51.80
72883;DHT22;61017;37.812;-122.286;2023-04-06T07:27:33;17.00;54.10
72883;DHT22;61017;37.812;-122.286;2023-04-06T07:29:05;16.70;54.00
72883;DHT22;61017;37.812;-122.286;2023-04-06T07:30:37;16.40;55.00
72883;DHT22;61017;37.812;-122.286;2023-04-06T07:32:09;16.20;56.50
72883;DHT22;61017;37.812;-122.286;2023-04-06T07:33:40;16.00;56.40
72883;DHT22;61017;37.812;-122.286;2023-04-06T07:35:12;15.90;57.20
72883;DHT22;61017;37.812;-122.286;2023-04-06T07:36:43;15.80;57.80
72883;DHT22;61017;37.812;-122.286;2023-04-06T07:38:15;15.80;58.50
72883;DHT22;61017;37.812;-122.286;2023-04-06T07:39:46;15.70;58.80
72883;DHT22;61017;37.812;-122.286;2023-04-06T07:41:18;15.60;59.10
72883;DHT22;61017;37.812;-122.286;2023-04-06T07:42:49;15.50;59.20
72883;DHT22;61017;37.812;-122.286;2023-04-06T07:44:21;15.50;59.60
72883;DHT22;61017;37.812;-122.286;2023-04-06T07:45:53;15.40;59.90
72883;DHT22;61017;37.812;-122.286;2023-04-06T07:47:24;15.40;59.90
72883;DHT22;61017;37.812;-122.286;2023-04-06T07:48:57;15.40;60.40
72883;DHT22;61017;37.812;-122.286;2023-04-06T07:50:28;15.40;60.60
72883;DHT22;61017;37.812;-122.286;2023-04-06T07:52:00;15.30;60.70
72883;DHT22;61017;37.812;-122.286;2023-04-06T07:53:32;15.20;61.00
72883;DHT22;61017;37.812;-122.286;2023-04-06T07:55:03;15.20;61.20
72883;DHT22;61017;37.812;-122.286;2023-04-06T07:56:35;15.20;61.60
72883;DHT22;61017;37.812;-122.286;2023-04-06T07:58:07;15.20;61.70
72883;DHT22;61017;37.812;-122.286;2023-04-06T07:59:38;15.20;61.80
72883;DHT22;61017;37.812;-122.286;2023-04-06T08:01:10;15.20;62.20
72883;DHT22;61017;37.812;-122.286;2023-04-06T08:02:41;15.20;62.30
72883;DHT22;61017;37.812;-122.286;2023-04-06T08:04:13;15.10;62.30
72883;DHT22;61017;37.812;-122.286;2023-04-06T08:05:44;15.10;62.70
72883;DHT22;61017;37.812;-122.286;2023-04-06T08:07:16;15.10;62.80
72883;DHT22;61017;37.812;-122.286;2023-04-06T08:08:47;15.10;63.00
72883;DHT22;61017;37.812;-122.286;2023-04-06T08:10:19;15.10;63.10
72883;DHT22;61017;37.812;-122.286;2023-04-06T08:11:51;15.10;63.20
72883;DHT22;61017;37.812;-122.286;2023-04-06T08:13:22;15.10;63.30
72883;DHT22;61017;37.812;-122.286;2023-04-06T08:14:54;15.00;63.30
72883;DHT22;61017;37.812;-122.286;2023-04-06T08:16:25;15.00;63.30
72883;DHT22;61017;37.812;-122.286;2023-04-06T08:17:57;15.00;63.50
72883;DHT22;61017;37.812;-122.286;2023-04-06T08:19:29;15.00;63.70
72883;DHT22;61017;37.812;-122.286;2023-04-06T08:21:00;15.00;63.70
72883;DHT22;61017;37.812;-122.286;2023-04-06T08:22:32;15.00;63.90
72883;DHT22;61017;37.812;-122.286;2023-04-06T08:24:04;15.00;63.90
72883;DHT22;61017;37.812;-122.286;2023-04-06T08:25:36;15.00;63.90
72883;DHT22;61017;37.812;-122.286;2023-04-06T08:27:08;15.00;64.10
72883;DHT22;61017;37.812;-122.286;2023-04-06T08:28:39;15.00;64.30
72883;DHT22;61017;37.812;-122.286;2023-04-06T08:30:11;14.90;64.20
72883;DHT22;61017;37.812;-122.286;2023-04-06T08:31:42;14.90;64.30
72883;DHT22;61017;37.812;-122.286;2023-04-06T08:33:14;14.90;64.40
72883;DHT22;61017;37.812;-122.286;2023-04-06T08:34:46;14.90;64.40
72883;DHT22;61017;37.812;-122.286;2023-04-06T08:36:19;14.90;64.50
72883;DHT22;61017;37.812;-122.286;2023-04-06T08:37:50;14.90;64.50
72883;DHT22;61017;37.812;-122.286;2023-04-06T08:39:22;14.90;64.60
72883;DHT22;61017;37.812;-122.286;2023-04-06T08:40:53;14.90;64.70
72883;DHT22;61017;37.812;-122.286;2023-04-06T08:42:26;14.90;64.80
72883;DHT22;61017;37.812;-122.286;2023-04-06T08:44:01;14.90;64.80
72883;DHT22;61017;37.812;-122.286;2023-04-06T08:45:33;14.90;64.90
72883;DHT22;61017;37.812;-122.286;2023-04-06T08:47:05;14.90;65.10
72883;DHT22;61017;37.812;-122.286;2023-04-06T08:48:38;14.90;65.20
72883;DHT22;61017;37.812;-122.286;2023-04-06T08:50:09;14.80;65.10
72883;DHT22;61017;37.812;-122.286;2023-04-06T08:51:42;14.90;65.30
72883;DHT22;61017;37.812;-122.286;2023-04-06T08:53:14;14.90;65.30
72883;DHT22;61017;37.812;-122.286;2023-04-06T08:54:47;14.80;65.10
72883;DHT22;61017;37.812;-122.286;2023-04-06T08:56:19;14.80;65.20
72883;DHT22;61017;37.812;-122.286;2023-04-06T08:57:51;14.80;65.30
72883;DHT22;61017;37.812;-122.286;2023-04-06T08:59:24;14.80;65.20
72883;DHT22;61017;37.812;-122.286;2023-04-06T09:00:55;14.80;65.40
72883;DHT22;61017;37.812;-122.286;2023-04-06T09:02:28;14.80;65.30
72883;DHT22;61017;37.812;-122.286;2023-04-06T09:04:00;14.80;65.40
72883;DHT22;61017;37.812;-122.286;2023-04-06T09:05:31;14.80;65.50
72883;DHT22;61017;37.812;-122.286;2023-04-06T09:07:03;14.80;65.50
72883;DHT22;61017;37.812;-122.286;2023-04-06T09:08:35;14.80;65.40
72883;DHT22;61017;37.812;-122.286;2023-04-06T09:10:08;14.80;66.40
72883;DHT22;61017;37.812;-122.286;2023-04-06T09:11:46;14.80;65.60
72883;DHT22;61017;37.812;-122.286;2023-04-06T09:13:18;14.80;65.60